createdAt,value
2017-08-13T00:01:02.142Z,17.10
2017-08-13T00:03:30.421Z,17.10
2017-08-13T00:05:59.804Z,17.10
2017-08-13T00:08:28.110Z,17.10
2017-08-13T00:10:56.416Z,17.10
2017-08-13T00:13:24.807Z,17.10
2017-08-13T00:15:53.029Z,17.00
2017-08-13T00:18:21.341Z,17.10
2017-08-13T00:20:49.579Z,17.10
2017-08-13T00:23:17.841Z,17.00
2017-08-13T00:25:46.161Z,17.00
2017-08-13T00:28:14.386Z,17.00
2017-08-13T00:30:42.641Z,17.00
2017-08-13T00:33:10.913Z,17.00
2017-08-13T00:35:39.150Z,17.00
2017-08-13T00:38:07.413Z,17.00
2017-08-13T00:40:35.657Z,17.00
2017-08-13T00:43:03.931Z,17.00
2017-08-13T00:45:32.157Z,17.00
2017-08-13T00:48:00.444Z,17.00
2017-08-13T00:50:28.676Z,17.10
2017-08-13T00:52:56.952Z,17.00
2017-08-13T00:55:25.227Z,17.00
2017-08-13T00:57:53.510Z,17.00
2017-08-13T01:00:21.811Z,17.00
2017-08-13T01:02:50.076Z,17.00
2017-08-13T01:05:18.357Z,17.00
2017-08-13T01:07:46.606Z,17.00
2017-08-13T01:10:14.973Z,17.00
2017-08-13T01:12:43.195Z,17.00
2017-08-13T01:15:11.509Z,17.00
2017-08-13T01:17:39.742Z,17.00
2017-08-13T01:20:08.083Z,17.10
2017-08-13T01:22:36.432Z,17.10
2017-08-13T01:25:04.683Z,17.10
2017-08-13T01:27:32.916Z,17.10
2017-08-13T01:30:01.183Z,17.10
2017-08-13T01:32:29.428Z,17.10
2017-08-13T01:34:57.700Z,17.10
2017-08-13T01:37:25.994Z,17.10
2017-08-13T01:39:54.255Z,17.10
2017-08-13T01:42:22.546Z,17.10
2017-08-13T01:44:50.961Z,17.10
2017-08-13T01:47:19.210Z,17.10
2017-08-13T01:49:47.512Z,17.10
2017-08-13T01:52:15.819Z,17.10
2017-08-13T01:54:44.056Z,17.10
2017-08-13T01:57:12.312Z,17.10
2017-08-13T01:59:41.729Z,17.10
2017-08-13T02:02:10.088Z,17.10
2017-08-13T02:04:38.426Z,17.10
2017-08-13T02:07:06.776Z,17.10
2017-08-13T02:09:35.042Z,17.10
2017-08-13T02:12:03.323Z,17.10
2017-08-13T02:14:31.558Z,17.10
2017-08-13T02:16:59.804Z,17.10
2017-08-13T02:19:28.082Z,17.10
2017-08-13T02:21:56.321Z,17.10
2017-08-13T02:24:24.603Z,17.10
2017-08-13T02:26:52.967Z,17.10
2017-08-13T02:29:21.232Z,17.20
2017-08-13T02:31:49.580Z,17.20
2017-08-13T02:34:17.906Z,17.20
2017-08-13T02:36:46.213Z,17.20
2017-08-13T02:39:14.497Z,17.20
2017-08-13T02:41:42.737Z,17.20
2017-08-13T02:44:11.028Z,17.20
2017-08-13T02:46:39.261Z,17.20
2017-08-13T02:49:07.517Z,17.20
2017-08-13T02:51:35.842Z,17.20
2017-08-13T02:54:04.083Z,17.20
2017-08-13T02:56:32.370Z,17.20
2017-08-13T02:59:00.791Z,17.20
2017-08-13T03:01:29.197Z,17.20
2017-08-13T03:03:57.475Z,17.20
2017-08-13T03:06:25.694Z,17.20
2017-08-13T03:08:54.030Z,17.20
2017-08-13T03:11:22.362Z,17.20
2017-08-13T03:13:50.641Z,17.20
2017-08-13T03:16:18.888Z,17.20
2017-08-13T03:18:47.195Z,17.10
2017-08-13T03:21:15.449Z,17.10
2017-08-13T03:23:43.686Z,17.10
2017-08-13T03:26:12.039Z,17.10
2017-08-13T03:28:40.297Z,17.10
2017-08-13T03:31:08.626Z,17.10
2017-08-13T03:33:36.930Z,17.20
2017-08-13T03:36:05.209Z,17.10
2017-08-13T03:38:33.458Z,17.10
2017-08-13T03:41:01.731Z,17.10
2017-08-13T03:43:30.074Z,17.10
2017-08-13T03:45:58.314Z,17.10
2017-08-13T03:48:26.640Z,17.10
2017-08-13T03:50:55.039Z,17.10
2017-08-13T03:53:23.323Z,17.10
2017-08-13T03:55:51.556Z,17.10
2017-08-13T03:58:19.841Z,17.10
2017-08-13T04:00:48.309Z,17.10
2017-08-13T04:03:16.613Z,17.10
2017-08-13T04:05:44.876Z,17.10
2017-08-13T04:08:13.188Z,17.10
2017-08-13T04:10:41.551Z,17.00
2017-08-13T04:13:10.820Z,17.00
2017-08-13T04:15:39.170Z,17.10
2017-08-13T04:18:07.446Z,17.00
2017-08-13T04:20:35.714Z,17.00
2017-08-13T04:23:04.076Z,17.00
2017-08-13T04:25:32.314Z,17.10
2017-08-13T04:28:00.587Z,17.00
2017-08-13T04:30:28.838Z,17.00
2017-08-13T04:32:57.088Z,17.00
2017-08-13T04:35:25.425Z,17.00
2017-08-13T04:37:53.719Z,17.00
2017-08-13T04:40:22.026Z,17.00
2017-08-13T04:42:50.279Z,17.00
2017-08-13T04:45:18.563Z,17.00
2017-08-13T04:47:46.812Z,17.00
2017-08-13T04:50:15.163Z,17.00
2017-08-13T04:52:43.393Z,17.00
2017-08-13T04:55:11.757Z,17.00
2017-08-13T04:57:40.058Z,17.10
2017-08-13T05:00:08.295Z,17.10
2017-08-13T05:02:36.599Z,17.00
2017-08-13T05:05:04.854Z,17.00
2017-08-13T05:07:33.136Z,17.10
2017-08-13T05:10:01.416Z,17.10
2017-08-13T05:12:29.658Z,17.20
2017-08-13T05:14:57.972Z,17.20
2017-08-13T05:17:26.204Z,17.20
2017-08-13T05:19:54.522Z,17.20
2017-08-13T05:22:22.882Z,17.20
2017-08-13T05:24:51.154Z,17.20
2017-08-13T05:27:19.384Z,17.30
2017-08-13T05:29:47.657Z,17.40
2017-08-13T05:32:15.902Z,17.40
2017-08-13T05:34:44.173Z,17.50
2017-08-13T05:37:12.542Z,17.50
2017-08-13T05:39:40.803Z,17.60
2017-08-13T05:42:09.084Z,17.70
2017-08-13T05:44:37.345Z,17.80
2017-08-13T05:47:06.524Z,17.80
2017-08-13T05:49:34.802Z,17.90
2017-08-13T05:52:03.095Z,17.90
2017-08-13T05:54:31.308Z,17.90
2017-08-13T05:56:59.644Z,17.90
2017-08-13T05:59:27.937Z,17.90
2017-08-13T06:01:56.183Z,17.90
2017-08-13T06:04:24.410Z,17.90
2017-08-13T06:06:52.698Z,17.90
2017-08-13T06:09:22.084Z,17.80
2017-08-13T06:11:50.406Z,17.80
2017-08-13T06:14:18.637Z,17.90
2017-08-13T06:16:47.600Z,18.00
2017-08-13T06:19:15.872Z,18.10
2017-08-13T06:21:44.182Z,18.00
2017-08-13T06:24:12.517Z,18.00
2017-08-13T06:26:41.174Z,18.10
2017-08-13T06:29:09.415Z,18.10
2017-08-13T06:31:37.683Z,18.20
2017-08-13T06:34:05.919Z,18.30
2017-08-13T06:36:34.160Z,18.40
2017-08-13T06:39:02.408Z,18.70
2017-08-13T06:41:30.678Z,18.80
2017-08-13T06:43:58.897Z,18.90
2017-08-13T06:46:27.166Z,19.00
2017-08-13T06:48:55.464Z,19.00
2017-08-13T06:51:23.716Z,19.00
2017-08-13T06:53:51.965Z,19.10
2017-08-13T06:56:20.210Z,19.10
2017-08-13T06:58:48.512Z,19.10
2017-08-13T07:01:16.745Z,19.30
2017-08-13T07:03:44.988Z,19.50
2017-08-13T07:06:13.298Z,19.80
2017-08-13T07:08:41.761Z,20.10
2017-08-13T07:11:10.027Z,20.40
2017-08-13T07:13:38.308Z,20.70
2017-08-13T07:16:06.563Z,21.10
2017-08-13T07:18:34.782Z,21.40
2017-08-13T07:21:03.257Z,21.60
2017-08-13T07:23:31.564Z,21.90
2017-08-13T07:25:59.846Z,22.30
2017-08-13T07:28:28.263Z,22.70
2017-08-13T07:30:56.579Z,23.00
2017-08-13T07:33:26.713Z,23.30
2017-08-13T07:35:58.672Z,23.40
2017-08-13T07:38:28.748Z,23.30
2017-08-13T07:40:57.128Z,23.50
2017-08-13T07:43:27.322Z,23.60
2017-08-13T07:45:55.617Z,23.60
2017-08-13T07:48:24.695Z,23.50
2017-08-13T07:50:54.167Z,23.60
2017-08-13T07:53:23.109Z,24.00
2017-08-13T07:55:51.416Z,24.40
2017-08-13T07:58:20.043Z,24.70
2017-08-13T08:00:48.587Z,24.90
2017-08-13T08:03:16.902Z,25.00
2017-08-13T08:05:45.146Z,25.20
2017-08-13T08:08:13.403Z,25.40
2017-08-13T08:10:41.659Z,25.70
2017-08-13T08:13:09.859Z,25.90
2017-08-13T08:15:38.125Z,26.40
2017-08-13T08:18:06.369Z,26.70
2017-08-13T08:20:34.679Z,26.60
2017-08-13T08:23:02.932Z,26.70
2017-08-13T08:25:31.243Z,26.80
2017-08-13T08:27:59.506Z,27.00
2017-08-13T08:30:27.782Z,27.40
2017-08-13T08:32:56.063Z,27.60
2017-08-13T08:35:24.421Z,27.70
2017-08-13T08:37:52.701Z,27.30
2017-08-13T08:40:20.964Z,26.90
2017-08-13T08:42:49.332Z,26.80
2017-08-13T08:45:17.565Z,27.10
2017-08-13T08:47:45.810Z,27.20
2017-08-13T08:50:14.079Z,27.00
2017-08-13T08:52:42.311Z,26.80
2017-08-13T08:55:10.604Z,26.60
2017-08-13T08:57:38.830Z,26.70
2017-08-13T09:00:07.584Z,26.90
2017-08-13T09:02:35.876Z,27.10
2017-08-13T09:05:04.133Z,27.10
2017-08-13T09:07:32.500Z,27.20
2017-08-13T09:10:00.777Z,27.30
2017-08-13T09:12:28.999Z,27.70
2017-08-13T09:14:57.335Z,27.80
2017-08-13T09:17:25.591Z,27.50
2017-08-13T09:19:53.930Z,27.20
2017-08-13T09:22:22.170Z,26.80
2017-08-13T09:24:50.427Z,26.30
2017-08-13T09:27:19.098Z,26.00
2017-08-13T09:29:47.342Z,25.70
2017-08-13T09:32:15.681Z,25.50
2017-08-13T09:34:43.903Z,25.40
2017-08-13T09:37:12.189Z,25.20
2017-08-13T09:39:40.428Z,24.90
2017-08-13T09:42:08.778Z,24.70
2017-08-13T09:44:37.012Z,24.50
2017-08-13T09:47:05.268Z,24.50
2017-08-13T09:49:33.556Z,24.40
2017-08-13T09:52:01.825Z,24.30
2017-08-13T09:54:30.101Z,24.10
2017-08-13T09:56:58.377Z,23.90
2017-08-13T09:59:26.772Z,23.70
2017-08-13T10:01:56.457Z,23.60
2017-08-13T10:04:24.794Z,23.60
2017-08-13T10:06:53.081Z,23.70
2017-08-13T10:09:21.414Z,24.10
2017-08-13T10:11:49.717Z,24.50
2017-08-13T10:14:17.961Z,24.90
2017-08-13T10:16:46.253Z,25.30
2017-08-13T10:19:14.480Z,25.40
2017-08-13T10:21:42.788Z,25.30
2017-08-13T10:24:11.060Z,25.40
2017-08-13T10:26:39.407Z,25.50
2017-08-13T10:29:07.764Z,25.80
2017-08-13T10:31:36.005Z,25.80
2017-08-13T10:34:04.257Z,25.90
2017-08-13T10:36:32.490Z,26.20
2017-08-13T10:39:00.834Z,26.50
2017-08-13T10:41:29.079Z,26.80
2017-08-13T10:43:57.328Z,27.00
2017-08-13T10:46:25.570Z,27.10
2017-08-13T10:48:53.982Z,27.30
2017-08-13T10:51:22.296Z,27.10
2017-08-13T10:53:50.577Z,27.30
2017-08-13T10:56:18.818Z,27.30
2017-08-13T10:58:47.132Z,27.70
2017-08-13T11:01:15.380Z,28.00
2017-08-13T11:03:43.649Z,27.90
2017-08-13T11:06:11.915Z,28.00
2017-08-13T11:08:41.328Z,28.20
2017-08-13T11:11:09.714Z,28.10
2017-08-13T11:13:37.977Z,28.50
2017-08-13T11:16:06.319Z,28.90
2017-08-13T11:18:34.780Z,29.50
2017-08-13T11:21:02.997Z,29.80
2017-08-13T11:23:31.279Z,30.40
2017-08-13T11:25:59.585Z,31.00
2017-08-13T11:28:28.038Z,31.40
2017-08-13T11:30:57.684Z,32.00
2017-08-13T11:33:26.016Z,32.90
2017-08-13T11:35:54.231Z,33.50
2017-08-13T11:38:22.637Z,33.90
2017-08-13T11:40:51.225Z,33.80
2017-08-13T11:43:19.678Z,34.70
2017-08-13T11:45:48.034Z,34.70
2017-08-13T11:48:16.713Z,35.30
2017-08-13T11:50:45.301Z,35.70
2017-08-13T11:53:13.641Z,36.20
2017-08-13T11:55:41.894Z,36.30
2017-08-13T11:58:10.197Z,36.40
2017-08-13T12:00:38.743Z,36.50
2017-08-13T12:03:06.970Z,35.70
2017-08-13T12:05:35.463Z,34.80
2017-08-13T12:08:04.009Z,33.60
2017-08-13T12:10:33.420Z,32.50
2017-08-13T12:13:01.738Z,31.60
2017-08-13T12:15:30.144Z,31.50
2017-08-13T12:17:58.429Z,32.20
2017-08-13T12:20:26.689Z,32.90
2017-08-13T12:22:55.777Z,33.50
2017-08-13T12:25:24.111Z,33.50
2017-08-13T12:27:52.394Z,33.20
2017-08-13T12:30:20.650Z,33.30
2017-08-13T12:32:49.042Z,33.30
2017-08-13T12:35:17.386Z,33.40
2017-08-13T12:37:45.779Z,33.50
2017-08-13T12:40:14.009Z,33.50
2017-08-13T12:42:42.343Z,33.50
2017-08-13T12:45:10.689Z,33.50
2017-08-13T12:47:39.034Z,33.30
2017-08-13T12:50:07.513Z,33.20
2017-08-13T12:52:35.798Z,32.70
2017-08-13T12:55:04.110Z,32.00
2017-08-13T12:57:32.415Z,31.30
2017-08-13T13:00:00.710Z,30.60
2017-08-13T13:02:29.026Z,30.10
2017-08-13T13:04:57.332Z,29.70
2017-08-13T13:07:25.649Z,29.30
2017-08-13T13:09:53.949Z,29.20
2017-08-13T13:12:22.307Z,29.10
2017-08-13T13:14:50.582Z,28.70
2017-08-13T13:17:18.882Z,28.60
2017-08-13T13:19:47.170Z,28.50
2017-08-13T13:22:15.456Z,28.30
2017-08-13T13:24:43.844Z,28.30
2017-08-13T13:27:12.172Z,28.30
2017-08-13T13:29:40.446Z,28.30
2017-08-13T13:32:08.708Z,28.20
2017-08-13T13:34:36.974Z,28.20
2017-08-13T13:37:05.215Z,28.10
2017-08-13T13:39:33.544Z,28.10
2017-08-13T13:42:01.886Z,28.00
2017-08-13T13:44:30.201Z,27.60
2017-08-13T13:46:58.490Z,27.40
2017-08-13T13:49:26.797Z,27.20
2017-08-13T13:51:55.074Z,27.00
2017-08-13T13:54:23.308Z,26.80
2017-08-13T13:56:51.584Z,26.70
2017-08-13T13:59:19.833Z,26.50
2017-08-13T14:01:48.109Z,26.40
2017-08-13T14:04:16.494Z,26.30
2017-08-13T14:06:44.918Z,26.30
2017-08-13T14:09:13.220Z,26.40
2017-08-13T14:11:41.439Z,26.30
2017-08-13T14:14:09.738Z,26.40
2017-08-13T14:16:38.024Z,26.40
2017-08-13T14:19:07.039Z,26.30
2017-08-13T14:21:35.323Z,26.10
2017-08-13T14:24:03.574Z,26.10
2017-08-13T14:26:31.889Z,26.10
2017-08-13T14:29:00.144Z,25.90
2017-08-13T14:31:28.462Z,25.80
2017-08-13T14:33:56.762Z,25.60
2017-08-13T14:36:25.007Z,25.60
2017-08-13T14:38:53.381Z,25.70
2017-08-13T14:41:21.766Z,25.70
2017-08-13T14:43:50.042Z,25.60
2017-08-13T14:46:18.368Z,25.60
2017-08-13T14:48:46.605Z,25.60
2017-08-13T14:51:14.930Z,25.60
2017-08-13T14:53:43.233Z,25.50
2017-08-13T14:56:16.693Z,25.60
2017-08-13T14:58:45.107Z,25.60
2017-08-13T15:01:13.464Z,25.60
2017-08-13T15:03:42.188Z,25.60
2017-08-13T15:06:11.039Z,25.60
2017-08-13T15:08:39.356Z,25.60
2017-08-13T15:11:07.704Z,25.60
2017-08-13T15:13:37.459Z,25.70
2017-08-13T15:16:05.917Z,25.60
2017-08-13T15:18:34.275Z,25.60
2017-08-13T15:21:02.655Z,25.60
2017-08-13T15:23:31.054Z,25.50
2017-08-13T15:25:59.382Z,25.60
2017-08-13T15:28:28.044Z,25.50
2017-08-13T15:30:56.437Z,25.50
2017-08-13T15:33:25.113Z,25.40
2017-08-13T15:35:53.605Z,25.30
2017-08-13T15:38:23.320Z,25.40
2017-08-13T15:40:52.117Z,25.30
2017-08-13T15:43:20.385Z,25.20
2017-08-13T15:45:48.833Z,25.20
2017-08-13T15:48:17.281Z,25.30
2017-08-13T15:50:45.542Z,25.30
2017-08-13T15:53:13.996Z,25.40
2017-08-13T15:55:45.047Z,25.30
2017-08-13T15:58:13.518Z,25.20
2017-08-13T16:00:41.871Z,25.20
2017-08-13T16:03:10.225Z,25.20
2017-08-13T16:05:38.535Z,25.10
2017-08-13T16:08:07.001Z,25.20
2017-08-13T16:10:35.335Z,25.10
2017-08-13T16:13:05.078Z,25.10
2017-08-13T16:15:33.562Z,25.10
2017-08-13T16:18:01.971Z,25.10
2017-08-13T16:20:30.418Z,25.10
2017-08-13T16:22:58.657Z,25.10
2017-08-13T16:25:26.958Z,25.10
2017-08-13T16:27:55.369Z,25.10
2017-08-13T16:30:25.352Z,25.00
2017-08-13T16:32:53.701Z,25.00
2017-08-13T16:35:21.956Z,24.80
2017-08-13T16:37:50.363Z,24.80
2017-08-13T16:40:18.688Z,24.80
2017-08-13T16:42:47.032Z,24.60
2017-08-13T16:45:16.157Z,24.70
2017-08-13T16:47:44.399Z,24.70
2017-08-13T16:50:12.851Z,24.60
2017-08-13T16:52:41.184Z,24.50
2017-08-13T16:55:09.575Z,24.40
2017-08-13T16:57:38.090Z,24.40
2017-08-13T17:00:07.029Z,24.40
2017-08-13T17:02:35.358Z,24.30
2017-08-13T17:05:03.686Z,24.40
2017-08-13T17:07:32.106Z,24.30
2017-08-13T17:10:01.824Z,24.20
2017-08-13T17:12:30.233Z,24.30
2017-08-13T17:14:58.618Z,24.30
2017-08-13T17:17:26.953Z,24.30
2017-08-13T17:19:55.243Z,24.30
2017-08-13T17:22:23.597Z,24.30
2017-08-13T17:24:52.272Z,24.40
2017-08-13T17:27:20.719Z,24.40
2017-08-13T17:29:48.970Z,24.40
2017-08-13T17:32:17.255Z,24.40
2017-08-13T17:34:47.401Z,24.40
2017-08-13T17:37:15.818Z,24.20
2017-08-13T17:39:44.326Z,24.30
2017-08-13T17:42:13.866Z,24.30
2017-08-13T17:44:43.644Z,24.30
2017-08-13T17:47:12.415Z,24.20
2017-08-13T17:49:40.758Z,24.10
2017-08-13T17:52:09.031Z,24.10
2017-08-13T17:54:37.401Z,24.00
2017-08-13T17:57:05.718Z,24.00
2017-08-13T17:59:33.994Z,24.00
2017-08-13T18:02:02.373Z,23.90
2017-08-13T18:04:30.663Z,23.80
2017-08-13T18:06:58.921Z,23.80
2017-08-13T18:09:27.215Z,23.80
2017-08-13T18:11:55.673Z,23.70
2017-08-13T18:14:23.929Z,23.70
2017-08-13T18:16:52.292Z,23.70
2017-08-13T18:19:20.696Z,23.60
2017-08-13T18:21:48.906Z,23.60
2017-08-13T18:24:17.264Z,23.50
2017-08-13T18:26:45.519Z,23.50
2017-08-13T18:29:13.876Z,23.50
2017-08-13T18:31:42.203Z,23.50
2017-08-13T18:34:10.472Z,23.40
2017-08-13T18:36:38.715Z,23.40
2017-08-13T18:39:07.085Z,23.30
2017-08-13T18:41:35.398Z,23.20
2017-08-13T18:44:04.843Z,23.20
2017-08-13T18:46:33.172Z,23.10
2017-08-13T18:49:01.461Z,23.10
2017-08-13T18:51:29.710Z,23.10
2017-08-13T18:53:58.052Z,23.10
2017-08-13T18:56:26.325Z,23.00
2017-08-13T18:58:54.567Z,22.90
2017-08-13T19:01:22.981Z,22.90
2017-08-13T19:03:51.202Z,22.80
2017-08-13T19:06:19.457Z,22.80
2017-08-13T19:08:47.704Z,22.70
2017-08-13T19:11:19.269Z,22.80
2017-08-13T19:13:47.842Z,22.80
2017-08-13T19:16:16.159Z,22.80
2017-08-13T19:18:44.433Z,22.80
2017-08-13T19:21:12.697Z,22.70
2017-08-13T19:23:40.908Z,22.70
2017-08-13T19:26:09.294Z,22.70
2017-08-13T19:28:37.678Z,22.60
2017-08-13T19:31:06.936Z,22.60
2017-08-13T19:33:35.292Z,22.50
2017-08-13T19:36:03.708Z,22.50
2017-08-13T19:38:31.981Z,22.40
2017-08-13T19:41:00.275Z,22.40
2017-08-13T19:43:28.700Z,22.40
2017-08-13T19:45:57.049Z,22.30
2017-08-13T19:48:25.809Z,22.30
2017-08-13T19:50:54.154Z,22.20
2017-08-13T19:53:22.665Z,22.20
2017-08-13T19:55:51.031Z,22.10
2017-08-13T19:58:19.526Z,22.20
2017-08-13T20:00:48.278Z,22.20
2017-08-13T20:03:16.577Z,22.10
2017-08-13T20:05:44.910Z,22.10
2017-08-13T20:08:13.144Z,22.10
2017-08-13T20:10:41.436Z,22.00
2017-08-13T20:13:09.734Z,22.00
2017-08-13T20:15:38.049Z,22.00
2017-08-13T20:18:06.287Z,21.90
2017-08-13T20:20:34.600Z,21.90
2017-08-13T20:23:02.935Z,21.80
2017-08-13T20:25:31.212Z,21.80
2017-08-13T20:27:59.464Z,21.70
2017-08-13T20:30:27.785Z,21.70
2017-08-13T20:32:56.136Z,21.70
2017-08-13T20:35:24.360Z,21.60
2017-08-13T20:37:52.618Z,21.60
2017-08-13T20:40:20.916Z,21.50
2017-08-13T20:42:49.185Z,21.50
2017-08-13T20:45:17.448Z,21.50
2017-08-13T20:47:45.704Z,21.50
2017-08-13T20:50:13.980Z,21.40
2017-08-13T20:52:42.313Z,21.40
2017-08-13T20:55:10.710Z,21.40
2017-08-13T20:57:39.034Z,21.30
2017-08-13T21:00:07.284Z,21.30
2017-08-13T21:02:35.621Z,21.30
2017-08-13T21:05:03.931Z,21.20
2017-08-13T21:07:32.205Z,21.10
2017-08-13T21:10:00.452Z,21.10
2017-08-13T21:12:28.717Z,21.00
2017-08-13T21:14:56.985Z,21.00
2017-08-13T21:17:25.264Z,21.00
2017-08-13T21:19:53.552Z,21.00
2017-08-13T21:22:21.865Z,20.90
2017-08-13T21:24:50.174Z,20.90
2017-08-13T21:27:18.431Z,20.80
2017-08-13T21:29:46.773Z,20.80
2017-08-13T21:32:15.052Z,20.80
2017-08-13T21:34:43.309Z,20.70
2017-08-13T21:37:11.550Z,20.60
2017-08-13T21:39:39.832Z,20.50
2017-08-13T21:42:08.160Z,20.40
2017-08-13T21:44:36.489Z,20.40
2017-08-13T21:47:04.720Z,20.40
2017-08-13T21:49:33.027Z,20.30
2017-08-13T21:52:01.295Z,20.20
2017-08-13T21:54:29.631Z,20.10
2017-08-13T21:56:57.912Z,20.00
2017-08-13T21:59:26.158Z,19.90
2017-08-13T22:01:54.470Z,19.90
2017-08-13T22:04:22.720Z,19.80
2017-08-13T22:06:50.988Z,19.80
2017-08-13T22:09:19.211Z,19.70
2017-08-13T22:11:47.446Z,19.70
2017-08-13T22:14:15.710Z,19.70
2017-08-13T22:16:43.959Z,19.60
2017-08-13T22:19:12.218Z,19.60
2017-08-13T22:21:40.505Z,19.60
2017-08-13T22:24:08.752Z,19.60
2017-08-13T22:26:36.994Z,19.60
2017-08-13T22:29:05.288Z,19.60
2017-08-13T22:31:33.520Z,19.50
2017-08-13T22:34:01.816Z,19.60
2017-08-13T22:36:30.087Z,19.60
2017-08-13T22:38:58.335Z,19.50
2017-08-13T22:41:26.681Z,19.50
2017-08-13T22:43:54.897Z,19.50
2017-08-13T22:46:23.182Z,19.40
2017-08-13T22:48:51.403Z,19.50
2017-08-13T22:51:19.664Z,19.50
2017-08-13T22:53:47.953Z,19.40
2017-08-13T22:56:16.242Z,19.40
2017-08-13T22:58:44.490Z,19.30
2017-08-13T23:01:12.741Z,19.30
2017-08-13T23:03:41.067Z,19.30
2017-08-13T23:06:09.434Z,19.30
2017-08-13T23:08:37.742Z,19.20
2017-08-13T23:11:06.014Z,19.20
2017-08-13T23:13:34.385Z,19.20
2017-08-13T23:16:02.642Z,19.10
2017-08-13T23:18:30.948Z,19.10
2017-08-13T23:20:59.216Z,19.00
2017-08-13T23:23:27.625Z,19.00
2017-08-13T23:25:56.569Z,19.10
2017-08-13T23:28:24.781Z,19.10
2017-08-13T23:30:53.101Z,19.00
2017-08-13T23:33:21.469Z,19.00
2017-08-13T23:35:49.741Z,19.00
2017-08-13T23:38:17.953Z,19.00
2017-08-13T23:40:46.317Z,18.90
2017-08-13T23:43:14.990Z,19.00
2017-08-13T23:45:43.235Z,18.90
2017-08-13T23:48:11.556Z,18.80
2017-08-13T23:50:39.885Z,18.70
2017-08-13T23:53:08.115Z,18.60
2017-08-13T23:55:36.440Z,18.60
2017-08-13T23:58:04.709Z,18.60
